메인 페이지
METAR-TAF:

METAR-TAF

공항 :

위치토, 캔자스, 미국

위도: 37-37N, 경도: 097-16W, 고도: 418m

현재 날씨관측

예보는 40분 전, 21:21시(UTC)에 발표되었습니다.
북북동14kt
온도 3°C
습도 81%
기압 1020 hPa
시정: 16.1km
고도 800ft 상공 흐림

METAR: KIAB 252121Z AUTO 02014KT 10SM OVC008 03/00 A3013 RMK AO2 SLP215

시각: 17:01 (22:01 UTC)

예보

예보는 6 시간 42분 전, 15:19시(UTC)에 발표되었습니다.
예보 대상 시간: 25일 15시부터 26일 15시까지 (UTC)
북동9kt
시정 10km 이상
고도 1000ft 상공 구름 보통
고도 2000ft 상공 흐림
일시적
25일 15시부터 25일 18시까지 (UTC)
고도 700ft 상공 구름 많음
고도 1000ft 상공 흐림
전환 중
25일 20시부터 25일 21시까지 (UTC)
12kt, 순간 최대 풍속 18kt
시정: 8000m
고도 1500ft 상공 구름 많음
약한소나기
전환 중
26일 02시부터 26일 03시까지 (UTC)
15kt, 순간 최대 풍속 20kt
시정: 8000m
고도 600ft 상공 구름 많음
(약한) 결빙, 이슬비
전환 중
26일 05시부터 26일 06시까지 (UTC)
20kt, 순간 최대 풍속 25kt
시정: 2610m
고도 600ft 상공 흐림
(약한) 결빙, 비

TAF: KIAB 251519Z 2515/2615 05009KT 9999 SCT010 OVC020 620202 QNH3006INS TEMPO 2515/2518 BKN007 OVC010 BECMG 2520/2521 01012G18KT 8000 -SHRA BKN015 QNH3008INS BECMG 2602/2603 01015G20KT 8000 -FZDZ BKN006 660001 650066 520803 QNH3018INS BECMG 2605/2606 01020G25KT 8000 -FZRA OVC006 690001 650066 520433 QNH3027INS TX04/2519Z TNM01/2607Z LAST NO AMDS AFT 2509 NEXT 2610

4,000개 이상의 공항 관측 자료 및 예보 (METAR 및 TAF 보고).

지도상에서 검색 가능한 기상관측소가 노란 점과 빨간 점으로 표시되어 있습니다.

기상관측소 명을 보려면 표시 위로 마우스를 이동하세요.

날씨 관측과 예보를 보려면 클릭하세요.

지도 변경 : 확대하려면 엑스 표시가 있는 녹색 버튼, 축소하려면 빼기 표시가 있는 녹색 버튼, 다음 페이지의 지도를 보려면 녹색 화살표를 클릭하세요.


METAR-TAF: